Time;durP1;ratioP1;P1;durP2;ratioP2;P2;SDS_P1;SDS_P2;PMS_P1;PMS_P2;Temp;Humidity;BMP_temperature;BMP_pressure;BME280_temperature;BME280_humidity;BME280_pressure;Samples;Min_cycle;Max_cycle;Signal;HPM_P1;HPM_P2
2022/05/11 00:01:33;;;;;;;21.77;18.20;;;;;;;11.14;97.45;101207.16;5014963;28;20523;-49
2022/05/11 00:04:02;;;;;;;23.00;20.43;;;;;;;11.14;97.70;101207.16;5014841;28;20477;-46
2022/05/11 00:06:30;;;;;;;23.20;20.83;;;;;;;11.13;97.63;101210.03;5014494;28;20472;-52
2022/05/11 00:08:59;;;;;;;25.77;20.07;;;;;;;11.09;97.83;101209.56;5014920;28;20447;-49
2022/05/11 00:11:28;;;;;;;27.40;21.00;;;;;;;11.09;97.62;101204.22;5014581;28;20436;-46
2022/05/11 00:13:57;;;;;;;22.90;20.50;;;;;;;11.09;97.71;101212.25;5014741;28;20437;-47
2022/05/11 00:16:26;;;;;;;29.60;23.50;;;;;;;11.09;97.75;101199.72;5014433;28;20479;-47
2022/05/11 00:18:53;;;;;;;24.37;21.83;;;;;;;11.08;97.33;101195.41;5014814;28;20559;-51
2022/05/11 00:21:22;;;;;;;26.57;22.00;;;;;;;11.09;97.66;101193.56;5014409;28;20455;-49
2022/05/11 00:23:49;;;;;;;30.77;23.93;;;;;;;11.08;97.53;101192.72;5014448;28;20432;-50
2022/05/11 00:26:18;;;;;;;31.13;22.40;;;;;;;11.07;97.68;101185.75;5013956;28;20475;-47
2022/05/11 00:28:46;;;;;;;24.80;22.13;;;;;;;11.07;97.43;101183.09;5014635;28;20456;-46
2022/05/11 00:31:14;;;;;;;27.20;22.40;;;;;;;11.07;97.50;101180.41;5014342;28;20461;-52
2022/05/11 00:33:42;;;;;;;24.67;22.20;;;;;;;11.08;97.61;101181.22;5013374;28;20931;-49
2022/05/11 00:36:11;;;;;;;31.73;22.80;;;;;;;11.06;97.51;101172.59;5013894;28;20500;-48
2022/05/11 00:38:40;;;;;;;29.73;24.00;;;;;;;11.05;97.62;101176.28;5014248;28;20429;-48
2022/05/11 00:41:08;;;;;;;34.60;26.13;;;;;;;11.04;97.64;101182.63;5014049;28;20935;-48
2022/05/11 00:43:39;;;;;;;27.20;23.40;;;;;;;11.05;97.61;101179.75;5014364;28;20432;-52
2022/05/11 00:46:14;;;;;;;30.60;24.50;;;;;;;11.06;97.34;101176.09;5019030;28;20463;-48
2022/05/11 00:51:34;;;;;;;37.50;27.30;;;;;;;11.05;97.27;101166.41;5014139;28;20440;-49
2022/05/11 00:54:05;;;;;;;42.13;26.13;;;;;;;11.04;97.27;101169.28;5014127;28;20440;-45
2022/05/11 00:56:34;;;;;;;32.63;27.27;;;;;;;11.03;97.18;101178.28;5013566;28;20469;-50
2022/05/11 00:59:11;;;;;;;34.47;27.67;;;;;;;11.01;96.87;101183.00;5013976;28;20433;-46
2022/05/11 01:01:40;;;;;;;47.67;28.63;;;;;;;10.99;96.82;101196.53;5013658;28;20473;-48
2022/05/11 01:04:10;;;;;;;43.53;27.93;;;;;;;10.98;96.93;101181.53;5014004;28;20954;-52
2022/05/11 01:06:40;;;;;;;40.03;28.37;;;;;;;10.96;97.00;101186.22;5013436;28;20461;-49
2022/05/11 01:09:08;;;;;;;45.63;28.73;;;;;;;10.96;96.34;101180.09;5013701;28;20927;-48
2022/05/11 01:11:39;;;;;;;41.80;29.83;;;;;;;10.94;96.60;101177.59;5013607;28;20443;-44
2022/05/11 01:14:11;;;;;;;40.63;30.53;;;;;;;10.92;96.50;101160.94;5013712;28;20487;-48
2022/05/11 01:16:41;;;;;;;29.37;25.07;;;;;;;10.90;96.55;101175.50;5013321;28;20475;-48
2022/05/11 01:19:14;;;;;;;39.57;29.27;;;;;;;10.90;96.24;101170.16;5013719;28;20429;-49
2022/05/11 01:21:46;;;;;;;46.33;29.43;;;;;;;10.86;96.89;101163.53;5013415;28;20443;-50
2022/05/11 01:24:34;;;;;;;37.10;31.93;;;;;;;10.84;96.67;101161.03;5013450;28;20941;-48
2022/05/11 01:27:23;;;;;;;47.87;29.70;;;;;;;10.81;96.49;101161.41;5013122;28;20477;-48
2022/05/11 01:29:51;;;;;;;32.00;27.37;;;;;;;10.81;96.68;101158.75;5013353;28;20437;-49
2022/05/11 01:32:19;;;;;;;29.40;25.57;;;;;;;10.80;97.07;101162.44;5013126;28;20433;-49
2022/05/11 01:34:49;;;;;;;32.40;27.93;;;;;;;10.78;96.80;101161.78;5013157;28;20429;-44
2022/05/11 01:37:18;;;;;;;32.37;25.80;;;;;;;10.79;97.10;101159.97;5012853;28;20496;-48
2022/05/11 01:39:47;;;;;;;46.53;31.97;;;;;;;10.76;96.90;101161.16;5013322;28;20433;-47
2022/05/11 01:42:15;;;;;;;40.27;29.57;;;;;;;10.76;97.32;101155.00;5013056;28;20441;-44
2022/05/11 01:44:42;;;;;;;33.97;29.30;;;;;;;10.76;97.21;101155.00;5012943;28;20433;-49
2022/05/11 01:47:10;;;;;;;39.73;30.43;;;;;;;10.76;97.23;101163.00;5019502;28;20476;-49
2022/05/11 01:49:38;;;;;;;38.33;30.07;;;;;;;10.75;97.20;101151.50;5018920;28;20452;-47
2022/05/11 01:52:06;;;;;;;34.50;28.60;;;;;;;10.75;97.19;101151.50;5012872;28;20791;-50
2022/05/11 01:54:34;;;;;;;45.53;33.90;;;;;;;10.74;97.23;101151.69;5013049;28;20433;-47
2022/05/11 01:57:03;;;;;;;50.10;34.27;;;;;;;10.73;97.35;101136.69;5012419;28;20475;-47
2022/05/11 01:59:31;;;;;;;45.53;32.50;;;;;;;10.74;96.85;101136.53;5012886;28;20495;-50
2022/05/11 02:01:59;;;;;;;40.30;31.20;;;;;;;10.76;96.92;101139.81;5012936;28;20437;-48
2022/05/11 02:09:57;;;;;;;44.80;33.47;;;;;;;10.81;95.78;101136.59;5012679;28;20429;-44
2022/05/11 02:12:26;;;;;;;38.50;30.37;;;;;;;10.81;95.92;101132.06;5012317;28;20448;-45
2022/05/11 02:14:53;;;;;;;41.93;31.10;;;;;;;10.82;95.73;101123.06;5012795;28;20433;-46
2022/05/11 02:17:23;;;;;;;43.23;31.93;;;;;;;10.85;95.91;101130.69;5012224;28;20472;-47
2022/05/11 02:19:51;;;;;;;40.67;33.07;;;;;;;10.84;95.55;101123.69;5012547;28;20429;-45
2022/05/11 02:22:18;;;;;;;48.93;35.37;;;;;;;10.84;95.45;101120.22;5012292;28;20443;-47
2022/05/11 02:24:46;;;;;;;45.53;33.13;;;;;;;10.86;95.43;101123.53;5012360;28;20436;-48
2022/05/11 02:27:13;;;;;;;46.40;34.57;;;;;;;10.85;95.55;101114.69;5011751;28;20484;-48
2022/05/11 02:29:42;;;;;;;43.17;33.60;;;;;;;10.88;95.29;101116.97;5012499;28;20437;-48
2022/05/11 02:32:10;;;;;;;44.00;34.37;;;;;;;10.88;95.44;101118.81;5012262;28;20811;-48
2022/05/11 02:37:23;;;;;;;42.67;34.40;;;;;;;10.90;95.04;101122.13;5011687;28;20472;-45
2022/05/11 02:39:50;;;;;;;50.53;35.20;;;;;;;10.90;95.15;101114.13;5012452;28;20433;-49
2022/05/11 02:42:18;;;;;;;48.43;34.50;;;;;;;10.92;95.05;101120.09;5012200;28;20445;-50
2022/05/11 02:44:47;;;;;;;43.70;33.47;;;;;;;10.93;94.95;101127.91;5012251;28;20439;-47
2022/05/11 02:47:15;;;;;;;53.30;35.90;;;;;;;10.96;94.89;101129.38;5019144;28;20465;-47
2022/05/11 02:49:44;;;;;;;46.30;33.30;;;;;;;10.95;95.42;101117.06;5017551;28;20421;-45
2022/05/11 02:52:14;;;;;;;42.20;34.73;;;;;;;10.97;95.20;101115.00;5011730;28;20451;-47
2022/05/11 02:54:42;;;;;;;49.40;36.37;;;;;;;10.97;95.46;101115.00;5012235;28;20429;-46
2022/05/11 02:57:10;;;;;;;46.00;34.77;;;;;;;10.98;95.33;101111.34;5011125;28;20461;-47
2022/05/11 02:59:38;;;;;;;49.50;35.60;;;;;;;10.99;95.23;101113.00;5012114;28;20440;-45
2022/05/11 03:02:07;;;;;;;43.77;33.90;;;;;;;11.01;95.40;101106.44;5011766;28;20444;-45
2022/05/11 03:04:35;;;;;;;53.80;38.50;;;;;;;11.03;95.14;101108.91;5011946;28;20437;-46
2022/05/11 03:07:03;;;;;;;56.47;39.67;;;;;;;11.05;95.02;101104.22;5011259;28;20479;-52
2022/05/11 03:09:30;;;;;;;50.77;38.00;;;;;;;11.07;94.72;101110.19;5012157;28;20439;-50
2022/05/11 03:11:58;;;;;;;45.77;34.90;;;;;;;11.09;94.51;101100.13;5026831;28;20440;-46
2022/05/11 03:14:26;;;;;;;47.47;37.63;;;;;;;11.11;94.29;101106.09;5011064;28;20515;-49
2022/05/11 03:16:53;;;;;;;65.73;42.23;;;;;;;11.13;94.11;101109.44;5010118;28;21036;-46
2022/05/11 03:19:22;;;;;;;51.00;39.67;;;;;;;11.15;94.17;101101.22;5011793;28;21275;-46
2022/05/11 03:21:50;;;;;;;57.13;41.60;;;;;;;11.16;94.21;101102.88;5011500;28;20934;-47
2022/05/11 03:24:19;;;;;;;52.33;39.33;;;;;;;11.17;93.98;101104.53;5011811;28;20528;-48
2022/05/11 03:26:46;;;;;;;48.80;36.33;;;;;;;11.21;94.11;101095.94;5011160;28;20465;-48
2022/05/11 03:29:14;;;;;;;52.73;39.80;;;;;;;11.22;94.13;101088.75;5012132;28;20433;-48
2022/05/11 03:34:36;;;;;;;50.13;38.07;;;;;;;11.24;94.40;101092.06;5011288;28;20437;-49
2022/05/11 03:34:37;;;;;;;39.37;33.77;;;;;;;11.23;94.68;101090.44;5011788;28;20424;-47
2022/05/11 03:37:05;;;;;;;61.37;41.20;;;;;;;11.23;94.87;101085.09;5011087;28;20469;-47
2022/05/11 03:39:32;;;;;;;59.20;40.57;;;;;;;11.22;94.95;101078.91;5012078;28;20428;-48
2022/05/11 03:42:00;;;;;;;55.30;41.87;;;;;;;11.21;95.11;101079.91;5011161;28;20438;-47
2022/05/11 03:44:28;;;;;;;47.43;35.83;;;;;;;11.24;94.71;101071.53;5011867;28;20443;-48
2022/05/11 03:46:56;;;;;;;49.20;36.40;;;;;;;11.26;94.75;101074.81;5010893;28;20468;-47
2022/05/11 03:49:24;;;;;;;68.10;40.80;;;;;;;11.27;94.48;101078.31;5011548;28;20931;-44
2022/05/11 03:51:53;;;;;;;51.07;37.90;;;;;;;11.28;94.65;101067.47;5011323;28;20441;-48
2022/05/11 03:54:20;;;;;;;52.77;38.03;;;;;;;11.30;94.67;101068.09;5011457;28;20448;-49
2022/05/11 03:56:48;;;;;;;53.20;39.53;;;;;;;11.34;94.37;101057.84;5010923;28;20478;-47
2022/05/11 03:59:16;;;;;;;42.10;36.87;;;;;;;11.37;94.64;101055.63;5011601;28;20436;-48
2022/05/11 04:01:43;;;;;;;53.53;38.00;;;;;;;11.42;94.54;101055.88;5011259;28;20437;-49
2022/05/11 04:04:12;;;;;;;60.37;39.50;;;;;;;11.47;94.54;101055.25;5011393;28;20432;-48
2022/05/11 04:06:39;;;;;;;50.77;38.70;;;;;;;11.52;94.28;101055.53;5010796;28;20477;-47
2022/05/11 04:09:08;;;;;;;48.70;33.80;;;;;;;11.57;94.40;101042.41;5012133;28;20435;-52
2022/05/11 04:11:36;;;;;;;52.80;35.77;;;;;;;11.61;94.56;101049.00;5014861;28;20447;-44
2022/05/11 04:14:04;;;;;;;54.23;34.30;;;;;;;11.63;94.70;101034.44;5014829;28;20435;-47
2022/05/11 04:16:31;;;;;;;43.27;32.17;;;;;;;11.72;94.54;101036.97;5014341;28;20468;-46
2022/05/11 04:18:59;;;;;;;44.40;32.57;;;;;;;11.77;94.58;101037.22;5014635;28;20437;-45
2022/05/11 04:21:27;;;;;;;38.03;31.10;;;;;;;11.86;94.51;101036.00;5014669;28;20444;-49
2022/05/11 04:23:54;;;;;;;41.10;28.70;;;;;;;11.92;95.07;101028.03;5014732;28;20438;-46
2022/05/11 04:26:23;;;;;;;40.30;31.73;;;;;;;12.05;94.27;101035.31;5014260;28;20477;-47
2022/05/11 04:28:51;;;;;;;36.47;28.30;;;;;;;12.17;94.62;101039.88;5014736;28;20444;-48
2022/05/11 04:31:19;;;;;;;48.33;31.30;;;;;;;12.29;94.68;101037.47;5014342;28;20537;-48
2022/05/11 04:33:47;;;;;;;36.13;29.53;;;;;;;12.42;95.51;101025.97;5014362;28;20433;-48
2022/05/11 04:36:14;;;;;;;36.80;29.53;;;;;;;12.55;95.37;101016.13;5013703;28;21021;-47
2022/05/11 04:38:42;;;;;;;47.23;29.57;;;;;;;12.72;95.54;101021.94;5014512;28;20441;-48
2022/05/11 04:41:10;;;;;;;30.33;26.03;;;;;;;12.81;96.66;101010.00;5014134;28;20441;-46
2022/05/11 04:43:40;;;;;;;33.70;28.53;;;;;;;12.81;97.61;101022.56;5014283;28;20964;-47
2022/05/11 04:46:07;;;;;;;27.70;24.70;;;;;;;12.82;97.81;101022.34;5013534;28;20467;-48
2022/05/11 04:48:35;;;;;;;33.07;27.03;;;;;;;12.86;98.11;101010.22;5014043;28;20441;-48
2022/05/11 04:51:04;;;;;;;32.40;24.70;;;;;;;12.90;98.05;100999.94;5014129;28;20524;-48
2022/05/11 04:53:32;;;;;;;33.90;24.27;;;;;;;12.94;98.34;101004.66;5014191;28;20440;-46
2022/05/11 04:55:59;;;;;;;30.23;25.40;;;;;;;12.97;98.40;100998.06;5013469;28;20457;-45
2022/05/11 04:58:27;;;;;;;38.70;28.50;;;;;;;13.02;98.54;100993.72;5014070;28;20793;-46
2022/05/11 05:00:56;;;;;;;28.90;24.13;;;;;;;13.06;98.41;100989.63;5013647;28;20438;-47
2022/05/11 05:03:24;;;;;;;25.57;22.80;;;;;;;13.05;98.39;100987.16;5013718;28;20437;-46
2022/05/11 05:05:52;;;;;;;35.40;24.97;;;;;;;13.07;98.32;100990.44;5013320;28;20464;-47
2022/05/11 05:08:19;;;;;;;27.83;22.80;;;;;;;13.07;98.63;100983.25;5013757;28;20479;-52
2022/05/11 05:10:53;;;;;;;27.27;23.87;;;;;;;13.10;98.71;100984.72;5013589;28;20831;-47
2022/05/11 05:13:20;;;;;;;36.87;25.50;;;;;;;13.12;98.76;100979.97;5013587;28;20456;-45
2022/05/11 05:15:57;;;;;;;29.90;24.57;;;;;;;13.11;98.28;100984.50;5012926;28;20461;-47
2022/05/11 05:18:25;;;;;;;28.40;24.30;;;;;;;13.14;98.42;100977.94;5013661;28;20429;-49
2022/05/11 05:20:53;;;;;;;25.27;22.10;;;;;;;13.17;98.84;100983.66;5013087;28;20433;-49
2022/05/11 05:23:20;;;;;;;29.67;22.63;;;;;;;13.25;98.60;100979.97;5013408;28;20926;-49
2022/05/11 05:25:48;;;;;;;29.60;22.93;;;;;;;13.30;98.63;100986.34;5012949;28;20461;-49
2022/05/11 05:31:09;;;;;;;25.70;22.97;;;;;;;13.52;98.30;100986.09;5013340;28;20521;-47
2022/05/11 05:33:39;;;;;;;28.90;23.43;;;;;;;13.62;98.41;100986.50;5013358;28;20871;-46
2022/05/11 05:36:07;;;;;;;26.13;22.30;;;;;;;13.77;97.97;100979.00;5012862;28;20461;-46
2022/05/11 05:38:38;;;;;;;26.47;21.30;;;;;;;13.91;98.16;100977.09;5013116;28;20953;-44
2022/05/11 05:41:06;;;;;;;29.83;21.37;;;;;;;14.01;97.75;100969.44;5013313;28;20439;-48
2022/05/11 05:43:33;;;;;;;27.77;24.97;;;;;;;14.08;97.47;100968.38;5013056;28;20444;-45
2022/05/11 05:46:02;;;;;;;27.00;21.33;;;;;;;14.26;97.40;100971.16;5012936;28;20465;-51
2022/05/11 05:48:30;;;;;;;25.47;22.53;;;;;;;14.46;97.44;100970.22;5024572;28;20480;-49
2022/05/11 05:51:06;;;;;;;23.40;21.00;;;;;;;14.58;96.35;100952.41;5032571;28;20436;-50
2022/05/11 05:53:34;;;;;;;27.20;21.10;;;;;;;14.67;95.97;100946.56;5032877;28;20827;-51
2022/05/11 05:56:02;;;;;;;27.20;21.60;;;;;;;14.79;95.06;100957.41;5032023;28;20464;-48
2022/05/11 05:58:30;;;;;;;26.00;19.90;;;;;;;14.94;94.66;100960.59;5032697;28;20429;-47
2022/05/11 06:00:57;;;;;;;24.97;19.60;;;;;;;15.07;94.40;100955.09;5032401;28;20432;-50
2022/05/11 06:03:28;;;;;;;21.53;19.23;;;;;;;15.22;94.23;100957.44;5032712;28;20455;-52
2022/05/11 06:06:04;;;;;;;19.97;17.83;;;;;;;15.30;93.24;100946.41;5031856;28;20470;-48
2022/05/11 06:08:31;;;;;;;24.23;20.40;;;;;;;15.35;92.20;100939.31;5032382;28;20867;-50
2022/05/11 06:10:59;;;;;;;26.60;21.33;;;;;;;15.47;91.64;100950.19;5032214;28;20439;-47
2022/05/11 06:13:27;;;;;;;22.00;18.90;;;;;;;15.51;90.14;100935.25;5032333;28;20432;-50
2022/05/11 06:15:56;;;;;;;22.57;20.27;;;;;;;15.57;89.93;100939.72;5031972;28;20452;-46
2022/05/11 06:18:27;;;;;;;22.67;20.33;;;;;;;15.61;89.09;100943.63;5032641;28;20432;-50
2022/05/11 06:20:56;;;;;;;21.50;19.40;;;;;;;15.77;89.78;100953.75;5031942;28;20416;-47
2022/05/11 06:23:24;;;;;;;22.00;20.00;;;;;;;15.89;89.11;100949.25;5032342;28;20894;-51
2022/05/11 06:25:52;;;;;;;21.53;18.20;;;;;;;16.12;89.34;100953.94;5031729;28;20565;-52
2022/05/11 06:28:20;;;;;;;18.77;16.97;;;;;;;16.37;88.29;100943.03;5032164;28;20475;-50
2022/05/11 06:31:08;;;;;;;19.37;17.10;;;;;;;16.63;86.96;100939.16;5031605;28;20428;-49
2022/05/11 06:33:45;;;;;;;19.47;17.23;;;;;;;16.79;85.80;100936.59;5032035;28;20436;-48
2022/05/11 06:36:15;;;;;;;17.90;16.13;;;;;;;16.86;84.52;100937.31;5031713;28;20816;-50
2022/05/11 06:38:43;;;;;;;24.53;18.43;;;;;;;16.97;83.53;100932.97;5032002;28;20455;-52
2022/05/11 06:41:13;;;;;;;20.00;18.03;;;;;;;17.14;83.22;100926.66;5031557;28;20444;-50
2022/05/11 06:43:41;;;;;;;18.50;16.60;;;;;;;17.35;82.90;100929.81;5032123;28;20455;-50
2022/05/11 06:46:09;;;;;;;20.43;18.60;;;;;;;17.45;79.60;100927.31;5029761;28;20817;-50
2022/05/11 06:48:37;;;;;;;18.30;16.70;;;;;;;17.62;80.37;100923.69;5020061;28;20465;-49
2022/05/11 06:51:05;;;;;;;18.63;17.13;;;;;;;17.73;78.08;100924.72;5011856;28;20433;-48
2022/05/11 06:59:20;;;;;;;18.03;16.33;;;;;;;17.99;78.26;100923.34;5011919;28;20432;-47
2022/05/11 06:59:24;;;;;;;18.33;16.63;;;;;;;18.39;74.62;100923.28;5011908;28;20431;-52
2022/05/11 07:01:53;;;;;;;18.77;15.37;;;;;;;18.45;73.74;100916.91;5011873;28;20437;-48
2022/05/11 07:04:23;;;;;;;20.40;16.90;;;;;;;18.43;73.27;100914.44;5011995;28;20492;-52
2022/05/11 07:06:52;;;;;;;17.60;16.00;;;;;;;18.30;71.88;100919.34;5011493;28;20599;-48
2022/05/11 07:09:22;;;;;;;17.30;15.90;;;;;;;18.22;72.70;100923.22;5011839;28;20563;-50
2022/05/11 07:14:36;;;;;;;17.40;15.80;;;;;;;18.25;73.47;100920.06;5011659;28;20439;-48
2022/05/11 07:17:04;;;;;;;18.10;16.50;;;;;;;18.36;74.58;100908.38;5011463;28;20453;-45
2022/05/11 07:19:33;;;;;;;17.50;15.20;;;;;;;18.58;74.62;100903.09;5011948;28;20428;-48
2022/05/11 07:22:02;;;;;;;17.07;15.57;;;;;;;18.76;72.92;100895.56;5011875;28;20539;-52
2022/05/11 07:24:31;;;;;;;18.30;16.40;;;;;;;18.90;71.38;100892.53;5011627;28;20432;-48
2022/05/11 07:26:59;;;;;;;16.03;14.63;;;;;;;19.01;71.75;100894.31;5010964;28;20464;-49
2022/05/11 07:29:27;;;;;;;18.07;14.60;;;;;;;19.18;70.88;100889.69;5011718;28;20483;-50
2022/05/11 07:31:55;;;;;;;14.03;12.93;;;;;;;19.18;69.24;100890.53;5011443;28;20432;-46
2022/05/11 07:34:22;;;;;;;15.73;14.30;;;;;;;19.28;68.53;100887.16;5011790;28;20451;-46
2022/05/11 07:36:54;;;;;;;14.80;13.50;;;;;;;19.98;70.27;100886.41;5011180;28;20469;-45
2022/05/11 07:39:22;;;;;;;13.00;11.80;;;;;;;20.67;66.49;100879.22;5011787;28;20429;-51
2022/05/11 07:41:51;;;;;;;13.83;12.70;;;;;;;21.57;64.05;100876.22;5011330;28;20444;-51
2022/05/11 07:44:19;;;;;;;15.87;14.63;;;;;;;21.85;62.93;100873.06;5014590;28;20790;-49
2022/05/11 07:46:47;;;;;;;15.83;14.43;;;;;;;21.84;61.32;100876.03;5020093;28;20470;-45
2022/05/11 07:49:16;;;;;;;13.73;12.53;;;;;;;21.46;59.98;100888.09;5023186;28;20547;-49
2022/05/11 07:51:45;;;;;;;14.97;13.97;;;;;;;21.16;59.18;100877.94;5015012;28;21141;-48
2022/05/11 07:54:13;;;;;;;14.90;13.70;;;;;;;20.86;59.61;100872.28;5015171;28;20527;-46
2022/05/11 08:02:12;;;;;;;14.93;13.83;;;;;;;20.18;60.48;100852.22;5062759;23;20482;-44
2022/05/11 08:04:41;;;;;;;14.33;13.23;;;;;;;20.35;61.69;100854.81;5048753;28;20934;-42
2022/05/11 08:07:09;;;;;;;13.87;12.80;;;;;;;20.55;61.74;100840.63;5054753;28;20454;-43
2022/05/11 08:09:37;;;;;;;13.90;12.93;;;;;;;20.81;61.92;100847.88;5055011;28;21050;-44
2022/05/11 08:12:06;;;;;;;17.07;15.57;;;;;;;20.77;60.50;100846.75;5054842;28;20450;-48
2022/05/11 08:14:35;;;;;;;17.00;15.47;;;;;;;20.65;60.01;100854.25;5054714;28;20429;-43
2022/05/11 08:17:03;;;;;;;16.60;15.27;;;;;;;20.45;59.88;100852.22;5054257;28;20501;-46
2022/05/11 08:19:30;;;;;;;15.83;14.33;;;;;;;20.41;61.21;100849.19;5054835;28;20435;-48
2022/05/11 08:21:58;;;;;;;16.40;14.90;;;;;;;20.29;61.25;100853.13;5054529;28;20890;-44
2022/05/11 08:24:27;;;;;;;15.87;14.50;;;;;;;20.10;61.39;100843.75;5054900;28;20518;-46
2022/05/11 08:26:55;;;;;;;15.27;14.07;;;;;;;20.11;62.44;100848.06;5054365;28;20503;-47
2022/05/11 08:34:56;;;;;;;16.33;14.80;;;;;;;19.74;62.63;100846.06;5054714;28;20431;-47
2022/05/11 08:37:24;;;;;;;15.77;14.10;;;;;;;19.64;62.93;100848.69;5054294;28;20486;-44
2022/05/11 08:39:51;;;;;;;17.30;15.90;;;;;;;19.41;63.72;100850.84;5054254;28;20431;-44
2022/05/11 08:42:19;;;;;;;16.30;14.90;;;;;;;19.42;63.78;100852.44;5054225;28;20461;-44
2022/05/11 08:44:49;;;;;;;16.17;14.97;;;;;;;19.75;64.51;100846.91;5054356;28;20466;-48
2022/05/11 08:47:31;;;;;;;15.70;14.40;;;;;;;20.26;64.09;100845.53;5037522;28;20470;-44
2022/05/11 08:50:09;;;;;;;15.90;14.27;;;;;;;20.44;59.39;100839.72;5034281;28;20471;-44
2022/05/11 08:52:45;;;;;;;15.63;14.53;;;;;;;20.46;60.37;100834.06;5034267;28;20455;-45
2022/05/11 08:55:15;;;;;;;15.77;14.77;;;;;;;20.67;60.69;100833.94;5033653;28;20522;-48
2022/05/11 08:57:48;;;;;;;15.30;14.20;;;;;;;21.20;58.31;100832.94;5033717;28;20996;-45
2022/05/11 09:00:19;;;;;;;16.10;14.63;;;;;;;21.38;58.64;100829.75;5033631;28;20947;-45
2022/05/11 09:02:52;;;;;;;17.17;13.47;;;;;;;21.60;58.26;100834.16;5034092;28;20522;-44
2022/05/11 09:05:23;;;;;;;15.53;14.07;;;;;;;21.37;56.86;100830.84;5034230;28;20431;-44
2022/05/11 09:07:53;;;;;;;15.27;13.83;;;;;;;21.41;57.24;100825.69;5033429;28;20562;-45
2022/05/11 09:10:29;;;;;;;15.30;14.00;;;;;;;21.54;57.68;100827.91;5033837;28;20471;-45
2022/05/11 09:12:58;;;;;;;13.30;12.40;;;;;;;21.85;55.38;100812.50;5033877;28;20832;-47
2022/05/11 09:15:48;;;;;;;14.00;12.77;;;;;;;22.19;54.88;100818.28;5033554;28;20432;-45
2022/05/11 09:18:17;;;;;;;13.10;11.77;;;;;;;22.41;54.09;100805.22;5033669;28;20435;-46
2022/05/11 09:20:47;;;;;;;14.03;10.97;;;;;;;22.65;54.37;100802.78;5033347;28;20539;-48
2022/05/11 09:23:15;;;;;;;15.00;11.20;;;;;;;22.76;53.01;100807.13;5033764;28;20432;-45
2022/05/11 09:25:57;;;;;;;10.40;9.50;;;;;;;22.65;49.49;100811.75;5033191;28;20964;-45
2022/05/11 09:28:29;;;;;;;10.13;9.40;;;;;;;22.49;49.66;100807.41;5033395;28;20438;-48
2022/05/11 09:31:02;;;;;;;10.20;9.17;;;;;;;22.49;50.51;100805.47;5032970;28;20475;-47
2022/05/11 09:33:33;;;;;;;10.80;9.77;;;;;;;22.43;50.85;100801.13;5033221;28;20964;-46
2022/05/11 09:36:03;;;;;;;10.80;9.53;;;;;;;22.35;50.94;100812.56;5032719;28;20523;-45
2022/05/11 09:38:51;;;;;;;9.53;8.53;;;;;;;22.56;51.46;100799.78;5033375;28;20424;-46
2022/05/11 09:41:23;;;;;;;9.13;7.93;;;;;;;22.67;50.16;100809.56;5032645;28;20550;-45
2022/05/11 09:43:53;;;;;;;11.13;9.67;;;;;;;22.44;49.28;100816.38;5033503;28;20521;-44
2022/05/11 09:46:28;;;;;;;10.77;9.53;;;;;;;22.33;51.11;100830.22;5032532;28;20459;-47
2022/05/11 09:49:00;;;;;;;9.60;8.70;;;;;;;22.40;49.72;100820.72;5033217;28;20459;-46
2022/05/11 09:51:33;;;;;;;12.97;8.47;;;;;;;22.33;49.04;100828.34;5032882;28;20460;-46
2022/05/11 09:54:19;;;;;;;10.47;9.33;;;;;;;22.26;48.61;100824.25;5033123;28;20463;-46
2022/05/11 09:57:00;;;;;;;11.70;9.07;;;;;;;22.40;48.76;100820.72;5032774;28;21009;-45
2022/05/11 09:59:31;;;;;;;10.53;9.10;;;;;;;22.42;50.49;100818.56;5032993;28;20447;-44
2022/05/11 10:02:19;;;;;;;9.73;8.73;;;;;;;22.49;49.80;100823.72;5032477;28;20509;-45
2022/05/11 10:04:55;;;;;;;14.13;9.73;;;;;;;22.47;49.35;100810.38;5032794;28;20882;-46
2022/05/11 10:07:24;;;;;;;10.33;9.10;;;;;;;22.49;49.44;100802.75;5032179;28;20467;-44
2022/05/11 10:09:59;;;;;;;8.90;8.17;;;;;;;22.53;49.59;100794.88;5032690;28;20558;-45
2022/05/11 10:12:33;;;;;;;9.83;7.60;;;;;;;22.63;49.60;100792.16;5032403;28;20488;-44
2022/05/11 10:23:53;;;;;;;11.37;7.63;;;;;;;22.71;45.99;100791.63;5032569;28;20510;-44
2022/05/11 10:26:29;;;;;;;8.87;7.97;;;;;;;22.71;47.45;100793.53;5031982;28;20481;-45
2022/05/11 10:29:08;;;;;;;12.97;7.80;;;;;;;22.72;47.05;100785.09;5032691;28;20470;-45
2022/05/11 10:31:39;;;;;;;12.07;8.63;;;;;;;22.75;47.72;100783.72;5032203;28;20456;-47
2022/05/11 10:34:16;;;;;;;9.57;6.70;;;;;;;22.57;47.50;100788.63;5033329;28;20921;-44
2022/05/11 10:36:56;;;;;;;7.80;7.20;;;;;;;22.46;46.74;100792.44;5032862;28;20553;-46
2022/05/11 10:39:38;;;;;;;8.90;8.20;;;;;;;22.54;48.38;100796.53;5032436;28;20474;-44
2022/05/11 10:42:12;;;;;;;9.80;8.90;;;;;;;22.43;48.02;100800.34;5032256;28;20455;-45
2022/05/11 10:44:53;;;;;;;9.50;8.40;;;;;;;22.05;48.29;100801.69;5032324;28;20456;-44
2022/05/11 10:47:51;;;;;;;9.87;7.63;;;;;;;22.25;47.18;100779.97;5031505;28;20994;-45
2022/05/11 10:50:24;;;;;;;8.90;7.63;;;;;;;22.53;47.35;100776.69;5031860;28;20479;-45
2022/05/11 10:53:09;;;;;;;8.43;6.93;;;;;;;22.79;46.85;100769.28;5032149;28;20432;-45
2022/05/11 10:55:49;;;;;;;7.53;6.90;;;;;;;22.80;46.67;100779.09;5031979;28;20431;-48
2022/05/11 10:58:38;;;;;;;8.47;7.30;;;;;;;22.75;45.88;100781.84;5032082;28;20937;-46
2022/05/11 11:01:10;;;;;;;10.33;8.30;;;;;;;22.71;45.65;100790.81;5031733;28;20469;-45
2022/05/11 11:04:05;;;;;;;9.50;8.33;;;;;;;22.49;45.91;100783.75;5031731;28;20463;-47
2022/05/11 11:09:43;;;;;;;12.60;9.17;;;;;;;22.59;45.59;100800.03;5031775;28;20427;-45
2022/05/11 11:12:42;;;;;;;10.47;8.97;;;;;;;22.54;45.98;100799.25;5031523;28;20459;-44
2022/05/11 11:15:13;;;;;;;8.60;7.13;;;;;;;22.10;46.04;100818.00;4992381;28;20435;-44
2022/05/11 11:17:43;;;;;;;14.13;8.00;;;;;;;21.59;47.26;100808.13;5031632;28;20459;-45
2022/05/11 11:20:15;;;;;;;11.53;8.00;;;;;;;21.44;47.95;100801.53;5035589;28;20438;-45
2022/05/11 11:23:03;;;;;;;11.87;7.60;;;;;;;21.55;47.99;100809.72;5036191;28;20493;-44
2022/05/11 11:25:54;;;;;;;12.00;8.53;;;;;;;21.83;47.59;100804.63;5035727;28;20435;-47
2022/05/11 11:28:24;;;;;;;9.57;8.57;;;;;;;21.96;46.75;100806.84;5035487;28;20444;-47
2022/05/11 11:31:25;;;;;;;12.57;7.90;;;;;;;21.89;46.63;100817.16;5035036;28;20479;-44
2022/05/11 11:34:19;;;;;;;13.63;7.33;;;;;;;22.33;45.51;100824.81;4974513;28;20520;-45
2022/05/11 11:36:47;;;;;;;9.93;7.57;;;;;;;22.32;47.34;100817.72;4973845;28;20558;-46
2022/05/11 11:39:52;;;;;;;16.17;10.00;;;;;;;22.22;46.45;100815.81;5013126;28;20531;-45
2022/05/11 11:42:42;;;;;;;10.73;7.93;;;;;;;22.25;46.46;100826.13;5035227;28;20451;-44
2022/05/11 11:45:32;;;;;;;11.77;8.83;;;;;;;22.10;46.77;100826.16;5031514;28;20455;-45
2022/05/11 11:48:04;;;;;;;11.13;9.37;;;;;;;21.69;47.55;100829.84;5031580;28;20840;-46
2022/05/11 11:50:48;;;;;;;9.83;8.83;;;;;;;21.87;48.31;100832.03;5035131;28;20467;-47
2022/05/11 11:53:24;;;;;;;10.70;9.23;;;;;;;21.90;48.95;100828.81;5035391;28;20428;-44
2022/05/11 11:55:52;;;;;;;9.80;7.63;;;;;;;21.77;47.51;100829.34;5034660;28;20427;-47
2022/05/11 11:58:30;;;;;;;13.10;8.70;;;;;;;22.13;47.00;100817.47;5035624;28;20431;-46
2022/05/11 12:01:09;;;;;;;8.63;7.87;;;;;;;22.21;46.85;100818.81;5034966;28;20459;-45
2022/05/11 12:03:51;;;;;;;9.57;8.57;;;;;;;22.21;45.54;100807.94;5035018;28;21003;-45
2022/05/11 12:15:04;;;;;;;9.00;6.17;;;;;;;22.03;44.52;100822.88;5035125;28;20814;-46
2022/05/11 12:17:35;;;;;;;8.40;7.27;;;;;;;22.26;44.53;100835.94;5034428;28;21018;-45
2022/05/11 12:20:12;;;;;;;9.87;7.83;;;;;;;22.39;44.48;100829.16;5034654;28;20428;-45
2022/05/11 12:22:45;;;;;;;7.63;7.03;;;;;;;22.27;44.06;100823.16;5034635;28;20462;-45